createdAt,value
2023-12-18T00:00:36.069Z,60.11
2023-12-18T00:03:02.758Z,59.49
2023-12-18T00:05:29.434Z,59.82
2023-12-18T00:07:55.953Z,59.75
2023-12-18T00:10:23.746Z,59.82
2023-12-18T00:12:50.222Z,59.14
2023-12-18T00:15:16.828Z,59.54
2023-12-18T00:17:43.521Z,59.32
2023-12-18T00:20:10.830Z,58.75
2023-12-18T00:22:37.308Z,58.22
2023-12-18T00:25:04.014Z,58.46
2023-12-18T00:27:30.575Z,58.56
2023-12-18T00:29:57.243Z,58.90
2023-12-18T00:32:23.787Z,58.71
2023-12-18T00:34:50.342Z,58.37
2023-12-18T00:37:16.950Z,58.65
2023-12-18T00:39:43.478Z,59.04
2023-12-18T00:42:10.092Z,59.00
2023-12-18T00:44:36.700Z,58.96
2023-12-18T00:47:04.139Z,59.31
2023-12-18T00:49:33.816Z,58.75
2023-12-18T00:52:01.144Z,58.38
2023-12-18T00:54:27.804Z,58.55
2023-12-18T00:56:54.550Z,58.62
2023-12-18T00:59:21.337Z,58.39
2023-12-18T01:01:47.968Z,58.29
2023-12-18T01:04:14.745Z,58.44
2023-12-18T01:06:41.406Z,58.35
2023-12-18T01:09:09.987Z,58.38
2023-12-18T01:11:36.912Z,58.16
2023-12-18T01:14:03.604Z,58.45
2023-12-18T01:16:30.480Z,58.66
2023-12-18T01:18:57.185Z,58.47
2023-12-18T01:21:23.945Z,59.10
2023-12-18T01:23:50.557Z,59.16
2023-12-18T01:26:17.126Z,59.62
2023-12-18T01:28:44.408Z,59.65
2023-12-18T01:31:23.859Z,59.66
2023-12-18T01:33:53.438Z,59.82
2023-12-18T01:36:20.267Z,59.98
2023-12-18T01:38:46.942Z,59.75
2023-12-18T01:41:13.754Z,59.61
2023-12-18T01:43:40.261Z,59.90
2023-12-18T01:46:06.971Z,59.92
2023-12-18T01:48:34.804Z,60.31
2023-12-18T01:51:02.557Z,60.47
2023-12-18T01:53:35.233Z,60.09
2023-12-18T01:56:02.912Z,60.31
2023-12-18T01:58:32.779Z,60.23
2023-12-18T02:01:00.636Z,59.92
2023-12-18T02:03:29.831Z,59.58
2023-12-18T02:05:57.811Z,59.50
2023-12-18T02:08:25.592Z,59.64
2023-12-18T02:10:52.552Z,59.66
2023-12-18T02:13:19.159Z,60.32
2023-12-18T02:15:45.735Z,60.83
2023-12-18T02:18:12.395Z,60.98
2023-12-18T02:20:42.365Z,60.83
2023-12-18T02:23:09.567Z,61.08
2023-12-18T02:25:36.041Z,61.09
2023-12-18T02:28:05.797Z,60.87
2023-12-18T02:30:33.334Z,60.53
2023-12-18T02:32:59.997Z,60.48
2023-12-18T02:35:27.184Z,60.93
2023-12-18T02:37:53.786Z,61.06
2023-12-18T02:40:21.450Z,60.82
2023-12-18T02:42:47.964Z,60.84
2023-12-18T02:45:14.593Z,60.60
2023-12-18T02:47:41.474Z,60.29
2023-12-18T02:50:08.621Z,59.85
2023-12-18T02:52:35.206Z,59.92
2023-12-18T02:55:01.882Z,59.70
2023-12-18T02:57:29.005Z,59.95
2023-12-18T02:59:55.535Z,59.76
2023-12-18T03:02:22.433Z,59.61
2023-12-18T03:04:49.001Z,59.92
2023-12-18T03:07:15.547Z,59.87
2023-12-18T03:09:42.046Z,60.01
2023-12-18T03:12:08.724Z,59.61
2023-12-18T03:14:35.334Z,59.75
2023-12-18T03:17:01.901Z,59.88
2023-12-18T03:19:28.632Z,60.17
2023-12-18T03:21:55.406Z,60.15
2023-12-18T03:24:23.816Z,60.65
2023-12-18T03:26:50.625Z,60.31
2023-12-18T03:29:17.190Z,60.73
2023-12-18T03:31:43.683Z,60.55
2023-12-18T03:34:10.291Z,60.47
2023-12-18T03:36:36.922Z,59.96
2023-12-18T03:39:03.526Z,60.42
2023-12-18T03:41:30.146Z,60.25
2023-12-18T03:43:56.638Z,59.43
2023-12-18T03:46:23.162Z,58.99
2023-12-18T03:48:49.696Z,58.34
2023-12-18T03:51:16.457Z,58.47
2023-12-18T03:53:42.973Z,58.79
2023-12-18T03:56:09.439Z,58.74
2023-12-18T03:58:37.859Z,58.57
2023-12-18T04:01:04.859Z,59.02
2023-12-18T04:03:34.481Z,59.59
2023-12-18T04:06:01.474Z,59.28
2023-12-18T04:08:28.094Z,59.55
2023-12-18T04:10:54.603Z,59.29
2023-12-18T04:13:21.179Z,59.03
2023-12-18T04:15:47.696Z,59.50
2023-12-18T04:18:14.385Z,59.33
2023-12-18T04:20:41.002Z,59.38
2023-12-18T04:23:07.488Z,59.42
2023-12-18T04:25:35.279Z,58.95
2023-12-18T04:28:01.721Z,58.60
2023-12-18T04:30:28.381Z,58.70
2023-12-18T04:32:54.931Z,58.98
2023-12-18T04:35:21.514Z,59.51
2023-12-18T04:37:48.164Z,59.90
2023-12-18T04:40:15.154Z,59.32
2023-12-18T04:42:41.922Z,59.47
2023-12-18T04:45:09.262Z,59.30
2023-12-18T04:47:35.882Z,60.51
2023-12-18T04:50:02.421Z,60.02
2023-12-18T04:52:29.000Z,59.67
2023-12-18T04:54:55.582Z,59.63
2023-12-18T04:57:22.123Z,59.90
2023-12-18T04:59:48.748Z,59.73
2023-12-18T05:02:15.246Z,59.76
2023-12-18T05:04:41.958Z,60.23
2023-12-18T05:07:09.416Z,60.10
2023-12-18T05:09:36.151Z,60.47
2023-12-18T05:12:02.734Z,60.75
2023-12-18T05:14:29.226Z,60.45
2023-12-18T05:16:55.694Z,60.18
2023-12-18T05:19:22.467Z,60.14
2023-12-18T05:21:49.116Z,60.12
2023-12-18T05:24:15.795Z,60.07
2023-12-18T05:26:42.444Z,59.50
2023-12-18T05:29:08.899Z,59.17
2023-12-18T05:31:35.582Z,59.42
2023-12-18T05:34:02.277Z,59.66
2023-12-18T05:36:29.011Z,59.78
2023-12-18T05:38:55.546Z,59.67
2023-12-18T05:41:22.094Z,59.32
2023-12-18T05:43:48.645Z,59.05
2023-12-18T05:46:15.426Z,59.49
2023-12-18T05:48:42.042Z,59.43
2023-12-18T05:51:19.331Z,59.86
2023-12-18T05:53:45.903Z,60.03
2023-12-18T05:56:12.523Z,59.38
2023-12-18T05:58:39.236Z,59.36
2023-12-18T06:01:06.170Z,60.54
2023-12-18T06:03:33.196Z,60.86
2023-12-18T06:05:59.899Z,60.65
2023-12-18T06:08:26.418Z,60.48
2023-12-18T06:10:52.924Z,59.41
2023-12-18T06:13:19.521Z,59.41
2023-12-18T06:15:46.055Z,59.32
2023-12-18T06:18:12.901Z,59.83
2023-12-18T06:20:39.476Z,59.82
2023-12-18T06:23:05.937Z,59.16
2023-12-18T06:25:32.472Z,58.85
2023-12-18T06:27:59.545Z,59.16
2023-12-18T06:30:26.183Z,59.21
2023-12-18T06:32:52.805Z,59.50
2023-12-18T06:35:19.479Z,59.50
2023-12-18T06:37:46.278Z,59.79
2023-12-18T06:40:13.077Z,59.93
2023-12-18T06:42:40.294Z,59.99
2023-12-18T06:45:07.633Z,60.77
2023-12-18T06:47:34.283Z,60.56
2023-12-18T06:50:00.872Z,60.44
2023-12-18T06:52:27.364Z,60.02
2023-12-18T06:54:53.972Z,60.66
2023-12-18T06:57:20.494Z,60.83
2023-12-18T06:59:46.980Z,61.04
2023-12-18T07:02:13.447Z,61.17
2023-12-18T07:04:39.912Z,61.40
2023-12-18T07:07:06.496Z,60.97
2023-12-18T07:09:33.121Z,61.91
2023-12-18T07:11:59.717Z,61.76
2023-12-18T07:14:26.211Z,62.08
2023-12-18T07:16:54.234Z,61.77
2023-12-18T07:19:20.941Z,61.44
2023-12-18T07:21:47.563Z,61.84
2023-12-18T07:24:14.127Z,61.67
2023-12-18T07:26:40.627Z,61.41
2023-12-18T07:29:07.124Z,61.59
2023-12-18T07:31:33.779Z,62.13
2023-12-18T07:34:00.451Z,61.82
2023-12-18T07:36:27.058Z,61.80
2023-12-18T07:38:53.583Z,61.93
2023-12-18T07:41:20.161Z,61.92
2023-12-18T07:43:46.832Z,62.10
2023-12-18T07:46:20.500Z,62.30
2023-12-18T07:48:49.481Z,61.96
2023-12-18T07:51:16.728Z,61.96
2023-12-18T07:53:43.391Z,62.43
2023-12-18T07:56:09.908Z,62.38
2023-12-18T07:58:36.513Z,62.48
2023-12-18T08:01:05.242Z,62.97
2023-12-18T08:03:32.092Z,62.61
2023-12-18T08:05:58.733Z,63.06
2023-12-18T08:08:25.204Z,62.85
2023-12-18T08:10:51.774Z,63.04
2023-12-18T08:13:18.341Z,63.03
2023-12-18T08:15:44.926Z,63.26
2023-12-18T08:18:13.307Z,63.33
2023-12-18T08:20:40.207Z,63.21
2023-12-18T08:23:06.725Z,63.68
2023-12-18T08:25:33.241Z,63.64
2023-12-18T08:27:59.986Z,63.51
2023-12-18T08:30:26.638Z,63.40
2023-12-18T08:32:53.286Z,63.09
2023-12-18T08:35:19.791Z,63.31
2023-12-18T08:37:46.248Z,63.35
2023-12-18T08:40:12.997Z,62.74
2023-12-18T08:42:39.576Z,62.79
2023-12-18T08:45:06.569Z,62.52
2023-12-18T08:47:33.699Z,62.46
2023-12-18T08:50:00.332Z,62.12
2023-12-18T08:52:26.826Z,62.17
2023-12-18T08:54:53.296Z,61.87
2023-12-18T08:57:19.978Z,62.03
2023-12-18T08:59:46.561Z,62.08
2023-12-18T09:02:13.104Z,62.00
2023-12-18T09:04:39.702Z,62.12
2023-12-18T09:07:06.375Z,62.32
2023-12-18T09:09:32.966Z,61.98
2023-12-18T09:11:59.516Z,61.76
2023-12-18T09:14:26.076Z,61.81
2023-12-18T09:16:52.543Z,61.82
2023-12-18T09:19:19.662Z,61.69
2023-12-18T09:21:46.197Z,61.53
2023-12-18T09:24:12.778Z,61.26
2023-12-18T09:26:39.318Z,61.48
2023-12-18T09:29:05.963Z,60.87
2023-12-18T09:31:32.727Z,60.78
2023-12-18T09:33:59.654Z,60.42
2023-12-18T09:36:26.353Z,60.27
2023-12-18T09:38:52.889Z,60.47
2023-12-18T09:41:26.164Z,60.34
2023-12-18T09:43:55.970Z,60.33
2023-12-18T09:46:23.929Z,60.26
2023-12-18T09:48:54.700Z,60.19
2023-12-18T09:51:23.494Z,60.20
2023-12-18T09:53:53.063Z,60.11
2023-12-18T09:56:23.537Z,60.03
2023-12-18T09:58:50.545Z,59.95
2023-12-18T10:01:17.507Z,59.86
2023-12-18T10:03:44.343Z,59.53
2023-12-18T10:06:11.053Z,59.43
2023-12-18T10:08:38.349Z,59.34
2023-12-18T10:11:05.071Z,59.22
2023-12-18T10:13:31.674Z,58.96
2023-12-18T10:16:00.288Z,58.77
2023-12-18T10:18:27.334Z,58.72
2023-12-18T10:20:54.043Z,58.65
2023-12-18T10:23:20.556Z,58.13
2023-12-18T10:25:48.056Z,58.40
2023-12-18T10:28:14.582Z,58.20
2023-12-18T10:30:41.249Z,57.96
2023-12-18T10:33:11.682Z,57.40
2023-12-18T10:35:39.340Z,57.37
2023-12-18T10:38:06.184Z,57.25
2023-12-18T10:40:32.925Z,56.99
2023-12-18T10:43:38.767Z,56.46
2023-12-18T10:46:06.175Z,55.88
2023-12-18T10:48:33.785Z,55.09
2023-12-18T10:51:02.319Z,55.15
2023-12-18T10:53:30.397Z,54.83
2023-12-18T10:55:59.373Z,54.83
2023-12-18T10:58:25.904Z,54.29
2023-12-18T11:00:54.221Z,54.04
2023-12-18T11:03:27.944Z,54.02
2023-12-18T11:05:57.772Z,54.32
2023-12-18T11:08:25.428Z,54.40
2023-12-18T11:10:54.550Z,53.71
2023-12-18T11:13:28.350Z,53.68
2023-12-18T11:16:23.995Z,53.33
2023-12-18T11:19:16.198Z,53.47
2023-12-18T11:21:50.465Z,53.12
2023-12-18T11:24:18.366Z,53.07
2023-12-18T11:26:46.914Z,52.91
2023-12-18T11:29:49.482Z,52.96
2023-12-18T11:32:48.087Z,52.84
2023-12-18T11:35:16.369Z,53.39
2023-12-18T11:37:52.358Z,53.15
2023-12-18T11:40:35.430Z,52.93
2023-12-18T11:43:02.915Z,53.06
2023-12-18T11:45:29.717Z,52.57
2023-12-18T11:47:58.271Z,52.55
2023-12-18T11:50:25.865Z,52.27
2023-12-18T11:52:59.388Z,51.69
2023-12-18T11:55:38.146Z,52.08
2023-12-18T11:58:05.511Z,51.92
2023-12-18T12:00:32.704Z,52.05
2023-12-18T12:02:59.746Z,52.06
2023-12-18T12:05:26.846Z,52.12
2023-12-18T12:07:54.142Z,52.83
2023-12-18T12:10:23.537Z,52.86
2023-12-18T12:12:57.520Z,52.93
2023-12-18T12:15:28.356Z,52.68
2023-12-18T12:18:07.726Z,52.65
2023-12-18T12:20:34.823Z,52.70
2023-12-18T12:23:01.332Z,53.07
2023-12-18T12:25:28.030Z,53.41
2023-12-18T12:27:54.691Z,52.42
2023-12-18T12:30:22.949Z,52.75
2023-12-18T12:32:49.707Z,52.75
2023-12-18T12:35:18.258Z,52.69
2023-12-18T12:37:46.589Z,52.16
2023-12-18T12:40:13.153Z,52.56
2023-12-18T12:42:41.467Z,52.14
2023-12-18T12:45:10.372Z,52.12
2023-12-18T12:47:38.626Z,52.22
2023-12-18T12:50:07.025Z,52.13
2023-12-18T12:52:38.254Z,51.77
2023-12-18T12:55:08.268Z,51.09
2023-12-18T12:57:34.909Z,50.77
2023-12-18T13:00:01.585Z,50.65
2023-12-18T13:02:29.019Z,50.52
2023-12-18T13:04:55.626Z,50.63
2023-12-18T13:07:23.828Z,50.51
2023-12-18T13:09:51.988Z,50.69
2023-12-18T13:12:18.836Z,51.10
2023-12-18T13:14:46.541Z,51.29
2023-12-18T13:17:13.793Z,51.36
2023-12-18T13:19:40.860Z,51.34
2023-12-18T13:22:07.603Z,51.68
2023-12-18T13:24:34.803Z,51.90
2023-12-18T13:27:01.983Z,52.05
2023-12-18T13:29:34.669Z,51.97
2023-12-18T13:32:02.449Z,52.22
2023-12-18T13:34:29.773Z,52.04
2023-12-18T13:36:57.372Z,52.08
2023-12-18T13:39:24.462Z,52.29
2023-12-18T13:41:56.489Z,51.74
2023-12-18T13:44:24.230Z,51.79
2023-12-18T13:46:51.649Z,51.84
2023-12-18T13:49:19.072Z,51.77
2023-12-18T13:51:46.098Z,51.66
2023-12-18T13:54:12.991Z,51.88
2023-12-18T13:56:39.776Z,51.70
2023-12-18T13:59:06.883Z,51.53
2023-12-18T14:01:33.816Z,51.72
2023-12-18T14:04:00.588Z,51.81
2023-12-18T14:06:27.534Z,51.52
2023-12-18T14:08:54.163Z,51.53
2023-12-18T14:11:20.794Z,51.70
2023-12-18T14:13:48.041Z,52.92
2023-12-18T14:16:14.687Z,53.51
2023-12-18T14:18:42.033Z,53.80
2023-12-18T14:21:08.758Z,54.06
2023-12-18T14:23:35.315Z,54.32
2023-12-18T14:26:02.049Z,54.17
2023-12-18T14:28:28.640Z,54.38
2023-12-18T14:30:55.337Z,54.66
2023-12-18T14:33:22.077Z,54.47
2023-12-18T14:35:50.471Z,54.78
2023-12-18T14:38:18.720Z,55.14
2023-12-18T14:40:46.582Z,55.19
2023-12-18T14:43:13.584Z,54.83
2023-12-18T14:45:40.358Z,54.97
2023-12-18T14:48:07.271Z,55.34
2023-12-18T14:50:34.912Z,55.46
2023-12-18T14:53:03.241Z,55.64
2023-12-18T14:55:31.702Z,55.46
2023-12-18T14:58:06.275Z,55.64
2023-12-18T15:00:33.947Z,56.05
2023-12-18T15:03:02.178Z,56.15
2023-12-18T15:05:28.793Z,56.36
2023-12-18T15:07:57.516Z,56.12
2023-12-18T15:10:25.210Z,56.83
2023-12-18T15:12:51.753Z,57.16
2023-12-18T15:15:18.348Z,57.23
2023-12-18T15:17:44.998Z,57.33
2023-12-18T15:20:12.052Z,57.48
2023-12-18T15:22:38.738Z,57.51
2023-12-18T15:25:05.953Z,57.37
2023-12-18T15:27:33.166Z,57.06
2023-12-18T15:29:59.942Z,57.16
2023-12-18T15:32:26.539Z,57.00
2023-12-18T15:34:53.752Z,57.02
2023-12-18T15:37:20.512Z,57.25
2023-12-18T15:39:47.206Z,57.43
2023-12-18T15:42:13.977Z,57.52
2023-12-18T15:44:40.857Z,56.51
2023-12-18T15:47:08.689Z,56.30
2023-12-18T15:49:35.425Z,55.92
2023-12-18T15:52:02.352Z,56.34
2023-12-18T15:54:28.966Z,56.46
2023-12-18T15:56:55.972Z,55.91
2023-12-18T15:59:23.009Z,56.38
2023-12-18T16:01:49.733Z,56.14
2023-12-18T16:04:16.373Z,56.69
2023-12-18T16:06:43.433Z,56.55
2023-12-18T16:09:13.628Z,56.59
2023-12-18T16:11:40.951Z,57.29
2023-12-18T16:14:07.806Z,57.64
2023-12-18T16:16:34.423Z,57.62
2023-12-18T16:19:01.119Z,57.38
2023-12-18T16:21:29.484Z,57.54
2023-12-18T16:23:56.188Z,57.50
2023-12-18T16:26:22.849Z,58.14
2023-12-18T16:28:50.748Z,58.11
2023-12-18T16:31:17.330Z,57.83
2023-12-18T16:33:44.213Z,57.74
2023-12-18T16:36:19.083Z,58.44
2023-12-18T16:38:47.658Z,59.59
2023-12-18T16:41:14.932Z,59.06
2023-12-18T16:43:41.419Z,59.31
2023-12-18T16:46:07.944Z,58.48
2023-12-18T16:48:35.816Z,58.76
2023-12-18T16:51:03.249Z,58.28
2023-12-18T16:53:29.932Z,58.00
2023-12-18T16:55:56.563Z,58.23
2023-12-18T16:58:23.402Z,59.32
2023-12-18T17:00:50.235Z,59.88
2023-12-18T17:03:20.196Z,60.07
2023-12-18T17:05:46.945Z,59.64
2023-12-18T17:08:14.230Z,59.66
2023-12-18T17:10:40.889Z,60.44
2023-12-18T17:13:07.486Z,60.58
2023-12-18T17:15:34.484Z,60.15
2023-12-18T17:18:01.120Z,60.35
2023-12-18T17:20:27.782Z,60.75
2023-12-18T17:22:54.278Z,60.48
2023-12-18T17:25:20.750Z,60.21
2023-12-18T17:27:47.243Z,59.59
2023-12-18T17:30:13.860Z,59.33
2023-12-18T17:32:40.443Z,59.07
2023-12-18T17:35:07.740Z,59.55
2023-12-18T17:37:34.590Z,59.93
2023-12-18T17:40:01.989Z,59.79
2023-12-18T17:42:32.025Z,59.62
2023-12-18T17:45:01.953Z,59.24
2023-12-18T17:47:29.726Z,59.45
2023-12-18T17:49:56.491Z,58.82
2023-12-18T17:52:23.094Z,59.46
2023-12-18T17:54:49.808Z,61.54
2023-12-18T17:57:16.864Z,62.34
2023-12-18T17:59:43.493Z,62.18
2023-12-18T18:02:11.331Z,60.39
2023-12-18T18:04:38.005Z,60.65
2023-12-18T18:07:06.003Z,60.13
2023-12-18T18:09:35.235Z,59.65
2023-12-18T18:12:01.736Z,59.45
2023-12-18T18:14:28.582Z,60.27
2023-12-18T18:16:55.101Z,60.68
2023-12-18T18:19:21.781Z,61.30
2023-12-18T18:21:48.353Z,60.82
2023-12-18T18:24:14.983Z,61.24
2023-12-18T18:26:41.709Z,61.59
2023-12-18T18:29:08.363Z,62.20
2023-12-18T18:31:35.069Z,61.80
2023-12-18T18:34:02.480Z,62.25
2023-12-18T18:36:31.954Z,62.64
2023-12-18T18:38:59.251Z,62.07
2023-12-18T18:41:26.409Z,61.15
2023-12-18T18:43:53.025Z,61.24
2023-12-18T18:46:19.600Z,60.68
2023-12-18T18:48:46.927Z,60.48
2023-12-18T18:51:13.560Z,60.23
2023-12-18T18:53:40.112Z,60.90
2023-12-18T18:56:07.452Z,60.89
2023-12-18T18:58:37.113Z,62.01
2023-12-18T19:01:04.050Z,61.91
2023-12-18T19:03:30.966Z,61.41
2023-12-18T19:05:57.596Z,61.23
2023-12-18T19:08:25.600Z,61.28
2023-12-18T19:10:52.121Z,62.26
2023-12-18T19:13:19.850Z,61.76
2023-12-18T19:15:48.039Z,61.83
2023-12-18T19:18:14.936Z,62.80
2023-12-18T19:20:41.586Z,62.07
2023-12-18T19:23:08.142Z,61.63
2023-12-18T19:25:34.763Z,61.92
2023-12-18T19:28:01.303Z,61.13
2023-12-18T19:30:28.258Z,61.57
2023-12-18T19:32:56.313Z,61.50
2023-12-18T19:35:22.894Z,61.37
2023-12-18T19:37:49.464Z,60.89
2023-12-18T19:40:16.081Z,61.18
2023-12-18T19:42:42.672Z,60.24
2023-12-18T19:45:09.594Z,60.18
2023-12-18T19:47:36.145Z,60.33
2023-12-18T19:50:03.052Z,60.53
2023-12-18T19:52:29.762Z,60.96
2023-12-18T19:54:56.301Z,60.97
2023-12-18T19:57:22.815Z,60.89
2023-12-18T19:59:49.320Z,61.22
2023-12-18T20:02:17.032Z,62.23
2023-12-18T20:04:43.555Z,62.01
2023-12-18T20:07:10.179Z,63.32
2023-12-18T20:09:36.921Z,63.16
2023-12-18T20:12:04.158Z,63.46
2023-12-18T20:14:30.717Z,62.30
2023-12-18T20:16:57.222Z,62.25
2023-12-18T20:19:23.918Z,62.70
2023-12-18T20:21:51.724Z,62.83
2023-12-18T20:24:18.899Z,62.78
2023-12-18T20:26:47.503Z,62.07
2023-12-18T20:29:14.417Z,62.57
2023-12-18T20:31:41.862Z,63.54
2023-12-18T20:34:08.609Z,64.33
2023-12-18T20:36:35.188Z,62.52
2023-12-18T20:39:02.808Z,61.96
2023-12-18T20:41:29.327Z,63.08
2023-12-18T20:43:55.914Z,63.82
2023-12-18T20:46:22.399Z,62.72
2023-12-18T20:48:50.762Z,62.27
2023-12-18T20:51:17.484Z,62.40
2023-12-18T20:53:43.980Z,61.58
2023-12-18T20:56:13.991Z,61.52
2023-12-18T20:58:41.495Z,61.74
2023-12-18T21:01:09.864Z,61.08
2023-12-18T21:03:36.638Z,60.78
2023-12-18T21:06:03.449Z,60.90
2023-12-18T21:08:29.975Z,61.47
2023-12-18T21:10:56.460Z,61.50
2023-12-18T21:13:24.194Z,61.25
2023-12-18T21:15:52.103Z,61.41
2023-12-18T21:18:18.605Z,61.39
2023-12-18T21:20:45.165Z,61.31
2023-12-18T21:23:11.717Z,61.43
2023-12-18T21:25:38.269Z,61.41
2023-12-18T21:28:04.858Z,61.26
2023-12-18T21:30:32.665Z,61.09
2023-12-18T21:32:59.408Z,61.05
2023-12-18T21:35:26.063Z,61.04
2023-12-18T21:37:52.941Z,62.24
2023-12-18T21:40:19.512Z,62.41
2023-12-18T21:42:46.160Z,61.88
2023-12-18T21:45:13.025Z,61.77
2023-12-18T21:47:40.577Z,61.15
2023-12-18T21:50:08.065Z,61.79
2023-12-18T21:52:34.594Z,61.47
2023-12-18T21:55:01.209Z,61.57
2023-12-18T21:57:27.720Z,61.90
2023-12-18T21:59:55.238Z,61.92
2023-12-18T22:02:21.761Z,61.61
2023-12-18T22:04:48.340Z,61.21
2023-12-18T22:07:14.863Z,60.97
2023-12-18T22:09:41.453Z,60.73
2023-12-18T22:12:08.682Z,60.85
2023-12-18T22:14:35.408Z,60.82
2023-12-18T22:17:02.199Z,60.89
2023-12-18T22:19:28.860Z,60.62
2023-12-18T22:21:55.632Z,60.39
2023-12-18T22:24:22.189Z,60.47
2023-12-18T22:26:48.771Z,60.89
2023-12-18T22:29:15.241Z,61.39
2023-12-18T22:31:42.541Z,61.41
2023-12-18T22:34:09.462Z,61.66
2023-12-18T22:36:38.559Z,61.43
2023-12-18T22:39:11.507Z,61.20
2023-12-18T22:41:40.902Z,61.11
2023-12-18T22:44:07.675Z,60.97
2023-12-18T22:46:34.335Z,61.79
2023-12-18T22:49:01.518Z,61.19
2023-12-18T22:51:28.207Z,60.66
2023-12-18T22:53:54.725Z,61.02
2023-12-18T22:56:21.880Z,61.24
2023-12-18T22:58:48.936Z,61.34
2023-12-18T23:01:15.445Z,60.83
2023-12-18T23:03:42.168Z,60.36
2023-12-18T23:06:09.867Z,60.42
2023-12-18T23:08:36.489Z,60.62
2023-12-18T23:11:03.013Z,60.35
2023-12-18T23:13:29.664Z,59.72
2023-12-18T23:15:56.195Z,60.25
2023-12-18T23:18:22.863Z,60.60
2023-12-18T23:20:49.470Z,60.67
2023-12-18T23:23:15.932Z,61.13
2023-12-18T23:25:42.485Z,60.53
2023-12-18T23:28:08.967Z,61.30
2023-12-18T23:30:36.719Z,61.83
2023-12-18T23:33:06.299Z,62.81
2023-12-18T23:35:36.515Z,62.55
2023-12-18T23:38:03.146Z,62.35
2023-12-18T23:40:29.960Z,62.49
2023-12-18T23:42:56.480Z,62.75
2023-12-18T23:45:23.007Z,63.31
2023-12-18T23:47:50.598Z,63.87
2023-12-18T23:50:17.856Z,63.46
2023-12-18T23:52:45.712Z,63.93
2023-12-18T23:55:15.357Z,63.96
2023-12-18T23:57:42.415Z,63.92
